Time;durP1;ratioP1;P1;durP2;ratioP2;P2;SDS_P1;SDS_P2;PMS_P1;PMS_P2;Temp;Humidity;BMP_temperature;BMP_pressure;BME280_temperature;BME280_humidity;BME280_pressure;Samples;Min_cycle;Max_cycle;Signal;HPM_P1;HPM_P2
2021/09/01 00:00:42;;;;;;;;;;;;;;;22.75;57.68;98765.75;3313368;29;19929;-72
2021/09/01 00:02:23;;;;;;;;;;;;;;;22.73;57.83;98767.97;3313324;29;19932;-69
2021/09/01 00:04:04;;;;;;;;;;;;;;;22.70;57.75;98763.13;3313609;29;19935;-70
2021/09/01 00:05:44;;;;;;;;;;;;;;;22.69;57.92;98759.63;3312813;29;19952;-71
2021/09/01 00:07:25;;;;;;;;;;;;;;;22.70;58.10;98752.25;3313635;29;20480;-71
2021/09/01 00:09:05;;;;;;;;;;;;;;;22.72;57.97;98756.28;3313492;29;19945;-71
2021/09/01 00:10:46;;;;;;;;;;;;;;;22.75;58.10;98746.75;3313356;29;20281;-72
2021/09/01 00:12:28;;;;;;;;;;;;;;;22.78;58.11;98741.50;3312348;29;19933;-70
2021/09/01 00:14:08;;;;;;;;;;;;;;;22.78;57.86;98738.00;3313033;29;19929;-69
2021/09/01 00:15:49;;;;;;;;;;;;;;;22.75;57.99;98736.69;3312904;29;19929;-70
2021/09/01 00:17:30;;;;;;;;;;;;;;;22.74;57.90;98735.03;3313315;29;20329;-70
2021/09/01 00:19:12;;;;;;;;;;;;;;;22.73;58.23;98740.78;3313011;29;19986;-71
2021/09/01 00:20:52;;;;;;;;;;;;;;;22.71;58.30;98729.41;3313009;29;19929;-71
2021/09/01 00:22:33;;;;;;;;;;;;;;;22.74;58.39;98734.25;3312689;29;20298;-72
2021/09/01 00:24:15;;;;;;;;;;;;;;;22.76;58.23;98737.47;3313135;29;19929;-70
2021/09/01 00:25:56;;;;;;;;;;;;;;;22.77;58.11;98728.22;3312949;29;19936;-70
2021/09/01 00:27:36;;;;;;;;;;;;;;;22.81;58.30;98729.25;3313208;29;20023;-71
2021/09/01 00:29:17;;;;;;;;;;;;;;;22.82;58.15;98719.97;3312593;29;19935;-69
2021/09/01 00:30:57;;;;;;;;;;;;;;;22.83;58.16;98718.88;3313105;29;20448;-71
2021/09/01 00:32:38;;;;;;;;;;;;;;;22.85;58.03;98722.13;3313093;29;19929;-69
2021/09/01 00:34:18;;;;;;;;;;;;;;;22.86;58.07;98710.94;3312996;29;20374;-70
2021/09/01 00:35:59;;;;;;;;;;;;;;;22.85;58.10;98712.03;3313035;29;20310;-70
2021/09/01 00:37:39;;;;;;;;;;;;;;;22.85;58.12;98713.97;3301317;29;20386;-71
2021/09/01 00:39:20;;;;;;;;;;;;;;;22.86;58.31;98707.41;3300800;29;20364;-72
2021/09/01 00:41:00;;;;;;;;;;;;;;;22.89;58.19;98714.97;3301506;29;20175;-70
2021/09/01 00:42:41;;;;;;;;;;;;;;;22.89;58.22;98706.81;3300413;29;20356;-70
2021/09/01 00:44:23;;;;;;;;;;;;;;;22.91;58.13;98712.75;3300688;29;19929;-70
2021/09/01 00:46:03;;;;;;;;;;;;;;;22.88;58.01;98698.97;3300315;29;20103;-74
2021/09/01 00:47:44;;;;;;;;;;;;;;;22.83;58.20;98705.31;3316820;29;20378;-70
2021/09/01 00:49:28;;;;;;;;;;;;;;;22.80;58.44;98701.28;3312194;29;20397;-70
2021/09/01 00:51:08;;;;;;;;;;;;;;;22.80;58.52;98701.28;3312369;29;20011;-71
2021/09/01 00:52:49;;;;;;;;;;;;;;;22.81;58.42;98704.78;3312840;29;19934;-70
2021/09/01 00:54:30;;;;;;;;;;;;;;;22.83;58.17;98705.31;3312844;29;19971;-69
2021/09/01 00:56:17;;;;;;;;;;;;;;;22.83;58.42;98705.31;3324169;29;19951;-70
2021/09/01 00:57:57;;;;;;;;;;;;;;;22.83;58.16;98700.66;3310174;29;20036;-71
2021/09/01 00:59:39;;;;;;;;;;;;;;;22.83;58.43;98699.88;3321869;29;19928;-70
2021/09/01 01:01:20;;;;;;;;;;;;;;;22.81;58.43;98692.00;3315187;29;19935;-70
2021/09/01 01:03:00;;;;;;;;;;;;;;;22.82;58.41;98698.22;3312804;29;19936;-71
2021/09/01 01:04:41;;;;;;;;;;;;;;;22.83;58.50;98689.00;3312653;29;19925;-70
2021/09/01 01:06:25;;;;;;;;;;;;;;;22.84;58.53;98690.59;3311909;29;19928;-71
2021/09/01 01:08:06;;;;;;;;;;;;;;;22.86;58.55;98696.53;3311127;29;19924;-71
2021/09/01 01:09:48;;;;;;;;;;;;;;;22.87;58.56;98692.72;3312717;29;19929;-71
2021/09/01 01:11:28;;;;;;;;;;;;;;;22.88;58.37;98691.63;3312797;29;20461;-70
2021/09/01 01:13:09;;;;;;;;;;;;;;;22.90;58.40;98677.72;3312516;29;19925;-69
2021/09/01 01:14:50;;;;;;;;;;;;;;;22.92;58.27;98684.47;3312557;29;19946;-70
2021/09/01 01:16:31;;;;;;;;;;;;;;;22.93;58.38;98690.72;3312745;29;20418;-71
2021/09/01 01:18:12;;;;;;;;;;;;;;;22.93;58.34;98688.00;3312270;29;19929;-71
2021/09/01 01:19:52;;;;;;;;;;;;;;;22.89;58.60;98681.56;3312816;29;19929;-70
2021/09/01 01:21:33;;;;;;;;;;;;;;;22.87;58.55;98681.84;3312555;29;19929;-71
2021/09/01 01:23:14;;;;;;;;;;;;;;;22.87;58.66;98676.41;3312244;29;20358;-70
2021/09/01 01:24:58;;;;;;;;;;;;;;;22.84;58.61;98668.84;3324421;29;20850;-71
2021/09/01 01:26:39;;;;;;;;;;;;;;;22.83;58.51;98668.06;3313977;29;20726;-71
2021/09/01 01:28:19;;;;;;;;;;;;;;;22.84;58.61;98666.94;3312232;29;20306;-71
2021/09/01 01:30:08;;;;;;;;;;;;;;;22.86;58.70;98666.66;3312483;29;19964;-69
2021/09/01 01:31:48;;;;;;;;;;;;;;;22.86;58.74;98653.06;3311674;29;19929;-69
2021/09/01 01:33:29;;;;;;;;;;;;;;;22.84;58.68;98652.56;3312876;29;19935;-69
2021/09/01 01:35:10;;;;;;;;;;;;;;;22.82;58.78;98652.03;3315067;29;19960;-70
2021/09/01 01:36:51;;;;;;;;;;;;;;;22.80;59.01;98654.28;3315267;29;20417;-71
2021/09/01 01:38:32;;;;;;;;;;;;;;;22.80;58.97;98644.22;3314702;29;19929;-71
2021/09/01 01:40:12;;;;;;;;;;;;;;;22.80;58.76;98644.22;3314947;29;19929;-71
2021/09/01 01:41:53;;;;;;;;;;;;;;;22.82;58.82;98643.91;3315007;29;19929;-70
2021/09/01 01:43:36;;;;;;;;;;;;;;;22.83;58.85;98629.22;3315150;29;20355;-70
2021/09/01 01:45:17;;;;;;;;;;;;;;;22.84;58.80;98619.94;3315154;29;19960;-71
2021/09/01 01:46:58;;;;;;;;;;;;;;;22.84;58.84;98614.53;3326676;29;19929;-71
2021/09/01 01:48:38;;;;;;;;;;;;;;;22.81;58.87;98606.97;3316384;29;19929;-71
2021/09/01 01:50:19;;;;;;;;;;;;;;;22.82;58.86;98605.84;3314790;29;19994;-70
2021/09/01 01:51:59;;;;;;;;;;;;;;;22.81;58.84;98609.69;3314721;29;20389;-70
2021/09/01 01:53:40;;;;;;;;;;;;;;;22.79;58.72;98614.63;3314950;29;20820;-70
2021/09/01 01:55:20;;;;;;;;;;;;;;;22.79;58.82;98607.28;3315150;29;20389;-71
2021/09/01 01:57:01;;;;;;;;;;;;;;;22.80;58.64;98608.09;3314959;29;20267;-69
2021/09/01 01:58:41;;;;;;;;;;;;;;;22.80;58.69;98606.19;3314457;29;19929;-70
2021/09/01 02:00:22;;;;;;;;;;;;;;;22.82;58.66;98605.84;3314840;29;19999;-69
2021/09/01 02:02:02;;;;;;;;;;;;;;;22.83;58.54;98605.56;3315036;29;19929;-71
2021/09/01 02:03:43;;;;;;;;;;;;;;;22.84;58.75;98603.66;3314985;29;20408;-72
2021/09/01 02:05:23;;;;;;;;;;;;;;;22.84;58.56;98603.66;3314037;29;19991;-71
2021/09/01 02:07:04;;;;;;;;;;;;;;;22.82;58.63;98603.97;3314553;29;19952;-71
2021/09/01 02:08:44;;;;;;;;;;;;;;;22.83;58.50;98607.50;3314632;29;19921;-71
2021/09/01 02:10:25;;;;;;;;;;;;;;;22.81;58.53;98605.06;3314541;29;19940;-70
2021/09/01 02:12:06;;;;;;;;;;;;;;;22.82;58.53;98600.44;3315070;29;19927;-71
2021/09/01 02:13:46;;;;;;;;;;;;;;;22.80;58.36;98600.75;3326010;29;19944;-70
2021/09/01 02:15:27;;;;;;;;;;;;;;;22.77;58.33;98590.50;3316997;29;19921;-69
2021/09/01 02:17:07;;;;;;;;;;;;;;;22.74;58.46;98577.47;3314076;29;19933;-68
2021/09/01 02:18:48;;;;;;;;;;;;;;;22.73;58.53;98575.88;3314417;29;20011;-70
2021/09/01 02:20:28;;;;;;;;;;;;;;;22.72;58.42;98568.84;3314564;29;20390;-68
2021/09/01 02:22:09;;;;;;;;;;;;;;;22.69;58.58;98563.19;3314277;29;19985;-71
2021/09/01 02:23:49;;;;;;;;;;;;;;;22.68;58.54;98562.41;3314351;29;19937;-70
2021/09/01 02:25:30;;;;;;;;;;;;;;;22.68;58.54;98556.16;3314522;29;19929;-70
2021/09/01 02:27:11;;;;;;;;;;;;;;;22.70;58.50;98553.97;3314529;29;19936;-72
2021/09/01 02:28:51;;;;;;;;;;;;;;;22.70;58.62;98548.53;3314606;29;19929;-70
2021/09/01 02:30:31;;;;;;;;;;;;;;;22.70;58.37;98552.03;3314090;29;19980;-71
2021/09/01 02:32:12;;;;;;;;;;;;;;;22.69;58.64;98555.88;3314226;29;20393;-70
2021/09/01 02:33:53;;;;;;;;;;;;;;;22.70;58.77;98567.53;3314510;29;21026;-68
2021/09/01 02:35:33;;;;;;;;;;;;;;;22.65;58.61;98555.66;3314355;29;20374;-69
2021/09/01 02:37:14;;;;;;;;;;;;;;;22.65;58.52;98549.44;3314706;29;20006;-69
2021/09/01 02:38:54;;;;;;;;;;;;;;;22.61;58.54;98549.25;3314403;29;19929;-71
2021/09/01 02:40:35;;;;;;;;;;;;;;;22.58;58.71;98549.81;3314213;29;19933;-70
2021/09/01 02:42:15;;;;;;;;;;;;;;;22.58;58.85;98557.16;3314039;29;19933;-70
2021/09/01 02:43:56;;;;;;;;;;;;;;;22.59;58.73;98556.09;3314471;29;20370;-69
2021/09/01 02:45:36;;;;;;;;;;;;;;;22.58;58.80;98547.09;3313590;29;20305;-69
2021/09/01 02:47:17;;;;;;;;;;;;;;;22.60;58.62;98544.91;3314487;29;19929;-70
2021/09/01 02:48:57;;;;;;;;;;;;;;;22.62;58.60;98537.25;3314396;29;19929;-69
2021/09/01 02:50:38;;;;;;;;;;;;;;;22.64;58.38;98534.25;3314140;29;19929;-70
2021/09/01 02:52:19;;;;;;;;;;;;;;;22.65;58.30;98536.66;3312752;29;19929;-70
2021/09/01 02:53:59;;;;;;;;;;;;;;;22.67;58.29;98532.84;3314168;29;19976;-70
2021/09/01 02:55:40;;;;;;;;;;;;;;;22.66;58.45;98529.31;3313793;29;20020;-70
2021/09/01 02:57:20;;;;;;;;;;;;;;;22.67;58.53;98521.97;3314168;29;19929;-71
2021/09/01 02:59:01;;;;;;;;;;;;;;;22.68;58.29;98518.94;3314194;29;19929;-71
2021/09/01 03:00:41;;;;;;;;;;;;;;;22.70;58.38;98518.66;3314040;29;19964;-70
2021/09/01 03:02:22;;;;;;;;;;;;;;;22.71;58.32;98522.97;3315131;29;19929;-70
2021/09/01 03:04:02;;;;;;;;;;;;;;;22.72;58.37;98524.56;3314219;29;20397;-69
2021/09/01 03:05:43;;;;;;;;;;;;;;;22.72;58.37;98514.53;3314005;29;19969;-70
2021/09/01 03:07:24;;;;;;;;;;;;;;;22.70;58.22;98513.22;3314081;29;20002;-68
2021/09/01 03:09:04;;;;;;;;;;;;;;;22.66;58.37;98510.28;3313981;29;20298;-70
2021/09/01 03:10:45;;;;;;;;;;;;;;;22.65;58.38;98504.06;3313202;29;19933;-71
2021/09/01 03:12:25;;;;;;;;;;;;;;;22.64;58.59;98509.81;3313543;29;20687;-70
2021/09/01 03:14:06;;;;;;;;;;;;;;;22.64;58.34;98507.91;3313661;29;19929;-71
2021/09/01 03:15:46;;;;;;;;;;;;;;;22.65;58.45;98504.06;3313615;29;19933;-71
2021/09/01 03:17:27;;;;;;;;;;;;;;;22.67;58.39;98506.47;3314150;29;19929;-69
2021/09/01 03:19:07;;;;;;;;;;;;;;;22.67;58.28;98505.69;3325434;29;19985;-71
2021/09/01 03:20:48;;;;;;;;;;;;;;;22.65;58.48;98498.63;3316525;29;20465;-71
2021/09/01 03:22:29;;;;;;;;;;;;;;;22.64;58.46;98502.47;3313515;29;20015;-70
2021/09/01 03:24:09;;;;;;;;;;;;;;;22.67;58.28;98500.25;3301734;29;19930;-71
2021/09/01 03:25:50;;;;;;;;;;;;;;;22.65;58.27;98492.41;3313931;29;20470;-71
2021/09/01 03:27:30;;;;;;;;;;;;;;;22.64;58.25;98488.88;3313618;29;19932;-71
2021/09/01 03:29:11;;;;;;;;;;;;;;;22.61;58.40;98486.78;3312968;29;19929;-71
2021/09/01 03:30:52;;;;;;;;;;;;;;;22.60;58.39;98485.16;3313215;29;19928;-70
2021/09/01 03:32:33;;;;;;;;;;;;;;;22.60;58.42;98482.44;3313386;29;20315;-71
2021/09/01 03:34:14;;;;;;;;;;;;;;;22.59;58.43;98486.28;3313543;29;19929;-70
2021/09/01 03:35:54;;;;;;;;;;;;;;;22.61;58.12;98481.34;3313922;29;20378;-69
2021/09/01 03:37:35;;;;;;;;;;;;;;;22.63;58.20;98476.38;3313914;29;20306;-70
2021/09/01 03:39:15;;;;;;;;;;;;;;;22.65;58.24;98476.91;3313997;29;20001;-70
2021/09/01 03:40:56;;;;;;;;;;;;;;;22.68;58.22;98480.13;3313299;29;19950;-72
2021/09/01 03:42:36;;;;;;;;;;;;;;;22.69;58.19;98476.28;3313322;29;19929;-71
2021/09/01 03:44:17;;;;;;;;;;;;;;;22.72;58.19;98464.81;3314298;29;19929;-71
2021/09/01 03:45:57;;;;;;;;;;;;;;;22.72;58.13;98470.22;3314449;29;19955;-72
2021/09/01 03:47:38;;;;;;;;;;;;;;;22.73;57.99;98471.88;3314031;29;20381;-72
2021/09/01 03:49:18;;;;;;;;;;;;;;;22.72;58.15;98467.53;3313621;29;19956;-71
2021/09/01 03:50:59;;;;;;;;;;;;;;;22.73;58.06;98471.88;3313490;29;19985;-69
2021/09/01 03:52:40;;;;;;;;;;;;;;;22.75;58.25;98470.44;3313181;29;19933;-70
2021/09/01 03:54:20;;;;;;;;;;;;;;;22.77;58.26;98467.41;3313618;29;19929;-70
2021/09/01 03:56:01;;;;;;;;;;;;;;;22.80;57.97;98473.06;3313437;29;19951;-70
2021/09/01 03:57:41;;;;;;;;;;;;;;;22.80;58.11;98477.69;3312723;29;19946;-70
2021/09/01 03:59:22;;;;;;;;;;;;;;;22.79;57.98;98465.19;3313443;29;19929;-69
2021/09/01 04:01:02;;;;;;;;;;;;;;;22.75;58.13;98469.66;3313466;29;20397;-70
2021/09/01 04:02:43;;;;;;;;;;;;;;;22.70;58.18;98462.41;3312982;29;20039;-70
2021/09/01 04:04:23;;;;;;;;;;;;;;;22.69;58.17;98465.41;3313595;29;20749;-71
2021/09/01 04:06:05;;;;;;;;;;;;;;;22.66;58.27;98461.41;3324791;29;20000;-69
2021/09/01 04:07:45;;;;;;;;;;;;;;;22.67;58.17;98452.16;3315735;29;19933;-71
2021/09/01 04:09:26;;;;;;;;;;;;;;;22.70;58.07;98459.69;3313094;29;19929;-70
2021/09/01 04:11:06;;;;;;;;;;;;;;;22.75;58.02;98462.31;3312933;29;20015;-71
2021/09/01 04:12:47;;;;;;;;;;;;;;;22.77;58.04;98451.13;3312944;29;20027;-71
2021/09/01 04:14:27;;;;;;;;;;;;;;;22.79;57.96;98460.56;3313222;29;19933;-72
2021/09/01 04:16:08;;;;;;;;;;;;;;;22.76;58.03;98460.38;3313185;29;19936;-71
2021/09/01 04:17:49;;;;;;;;;;;;;;;22.73;58.02;98455.56;3313410;29;19982;-71
2021/09/01 04:19:29;;;;;;;;;;;;;;;22.73;58.02;98461.00;3313111;29;19952;-71
2021/09/01 04:21:10;;;;;;;;;;;;;;;22.75;57.87;98459.59;3313243;29;19968;-73
2021/09/01 04:22:50;;;;;;;;;;;;;;;22.74;58.00;98452.53;3312782;29;19936;-71
2021/09/01 04:24:31;;;;;;;;;;;;;;;22.74;58.17;98451.72;3312913;29;20402;-72
2021/09/01 04:26:11;;;;;;;;;;;;;;;22.73;58.19;98458.28;3313092;29;19936;-70
2021/09/01 04:27:52;;;;;;;;;;;;;;;22.65;58.13;98460.59;3313267;29;19936;-71
2021/09/01 04:29:32;;;;;;;;;;;;;;;22.62;58.41;98465.84;3312693;29;20354;-70
2021/09/01 04:31:13;;;;;;;;;;;;;;;22.59;58.41;98456.41;3312863;29;19933;-70
2021/09/01 04:32:54;;;;;;;;;;;;;;;22.57;58.61;98455.88;3312996;29;19936;-71
2021/09/01 04:34:34;;;;;;;;;;;;;;;22.50;58.67;98452.78;3324754;29;19929;-70
2021/09/01 04:36:15;;;;;;;;;;;;;;;22.48;58.63;98448.75;3315422;29;20019;-72
2021/09/01 04:37:55;;;;;;;;;;;;;;;22.48;58.69;98446.84;3313690;29;19936;-71
2021/09/01 04:39:37;;;;;;;;;;;;;;;22.43;58.66;98450.47;3313202;29;20313;-70
2021/09/01 04:41:17;;;;;;;;;;;;;;;22.42;58.73;98457.00;3325091;29;19929;-70
2021/09/01 04:42:58;;;;;;;;;;;;;;;22.44;58.80;98445.84;3315387;29;19936;-69
2021/09/01 04:44:38;;;;;;;;;;;;;;;22.43;58.73;98447.78;3313707;29;19929;-71
2021/09/01 04:46:19;;;;;;;;;;;;;;;22.41;58.56;98446.47;3313266;29;19937;-73
2021/09/01 04:48:00;;;;;;;;;;;;;;;22.41;58.81;98449.19;3312136;29;20413;-73
2021/09/01 04:49:40;;;;;;;;;;;;;;;22.46;58.89;98440.94;3308908;29;19943;-70
2021/09/01 04:51:21;;;;;;;;;;;;;;;22.49;58.61;98442.22;3312593;29;19929;-71
2021/09/01 04:53:01;;;;;;;;;;;;;;;22.53;58.61;98446.72;3312632;29;20002;-70
2021/09/01 04:54:42;;;;;;;;;;;;;;;22.57;58.61;98439.59;3312498;29;20066;-70
2021/09/01 04:56:22;;;;;;;;;;;;;;;22.61;58.50;98437.06;3312822;29;19960;-70
2021/09/01 04:58:03;;;;;;;;;;;;;;;22.63;58.58;98434.84;3312287;29;19980;-71
2021/09/01 04:59:43;;;;;;;;;;;;;;;22.63;58.63;98430.22;3312199;29;20458;-71
2021/09/01 05:01:24;;;;;;;;;;;;;;;22.61;58.53;98431.63;3312452;29;19929;-71
2021/09/01 05:03:04;;;;;;;;;;;;;;;22.60;58.59;98425.41;3312355;29;19951;-72
2021/09/01 05:04:45;;;;;;;;;;;;;;;22.61;58.71;98423.47;3312754;29;19936;-71
2021/09/01 05:06:27;;;;;;;;;;;;;;;22.58;58.49;98416.75;3312711;29;19929;-72
2021/09/01 05:08:07;;;;;;;;;;;;;;;22.57;58.67;98415.16;3312423;29;19929;-71
2021/09/01 05:09:48;;;;;;;;;;;;;;;22.59;58.55;98412.16;3312516;29;19932;-70
2021/09/01 05:11:28;;;;;;;;;;;;;;;22.60;58.63;98409.09;3312785;29;20383;-69
2021/09/01 05:13:09;;;;;;;;;;;;;;;22.58;58.46;98408.59;3312707;29;19929;-71
2021/09/01 05:14:50;;;;;;;;;;;;;;;22.54;58.54;98410.34;3312556;29;19925;-72
2021/09/01 05:16:30;;;;;;;;;;;;;;;22.51;58.63;98402.81;3312586;29;20320;-72
2021/09/01 05:18:11;;;;;;;;;;;;;;;22.49;58.46;98405.00;3324312;29;20035;-72
2021/09/01 05:19:51;;;;;;;;;;;;;;;22.51;58.75;98404.69;3314527;29;19958;-72
2021/09/01 05:21:33;;;;;;;;;;;;;;;22.54;58.81;98399.47;3312713;29;20294;-72
2021/09/01 05:23:13;;;;;;;;;;;;;;;22.58;58.66;98397.75;3312125;29;20444;-70
2021/09/01 05:25:05;;;;;;;;;;;;;;;22.62;58.47;98387.09;3312628;29;19929;-70
2021/09/01 05:26:45;;;;;;;;;;;;;;;22.64;58.50;98393.03;3312609;29;19929;-71
2021/09/01 05:28:27;;;;;;;;;;;;;;;22.65;58.50;98397.34;3311588;29;20470;-71
2021/09/01 05:30:12;;;;;;;;;;;;;;;22.61;58.25;98394.44;3311910;29;19933;-71
2021/09/01 05:31:52;;;;;;;;;;;;;;;22.60;58.34;98390.09;3311637;29;19929;-72
2021/09/01 05:33:35;;;;;;;;;;;;;;;22.61;58.22;98394.44;3308970;29;20001;-70
2021/09/01 05:35:16;;;;;;;;;;;;;;;22.61;58.26;98389.00;3312279;29;19936;-71
2021/09/01 05:36:56;;;;;;;;;;;;;;;22.63;58.20;98391.41;3312566;29;19930;-72
2021/09/01 05:38:37;;;;;;;;;;;;;;;22.62;58.16;98390.59;3312597;29;20028;-73
2021/09/01 05:40:17;;;;;;;;;;;;;;;22.61;58.02;98389.00;3311664;29;19937;-71
2021/09/01 05:41:58;;;;;;;;;;;;;;;22.62;57.98;98389.81;3312078;29;19929;-69
2021/09/01 05:43:38;;;;;;;;;;;;;;;22.62;57.89;98379.72;3310821;29;19933;-72
2021/09/01 05:45:19;;;;;;;;;;;;;;;22.65;58.00;98381.03;3309262;29;20298;-70
2021/09/01 05:46:59;;;;;;;;;;;;;;;22.69;57.90;98373.06;3312278;29;19929;-71
2021/09/01 05:48:40;;;;;;;;;;;;;;;22.74;57.54;98372.94;3311718;29;20453;-70
2021/09/01 05:50:20;;;;;;;;;;;;;;;22.76;57.62;98378.88;3311771;29;19987;-70
2021/09/01 05:52:02;;;;;;;;;;;;;;;22.74;57.69;98373.75;3311333;29;19980;-69
2021/09/01 05:53:42;;;;;;;;;;;;;;;22.76;57.56;98370.75;3311975;29;20003;-70
2021/09/01 05:55:24;;;;;;;;;;;;;;;22.80;57.41;98369.81;3312520;29;19929;-72
2021/09/01 05:57:07;;;;;;;;;;;;;;;22.86;57.59;98374.00;3312430;29;19974;-72
2021/09/01 05:58:50;;;;;;;;;;;;;;;22.94;57.37;98369.75;3312393;29;19951;-72
2021/09/01 06:00:32;;;;;;;;;;;;;;;23.00;56.93;98357.69;3311293;29;19929;-71
2021/09/01 06:02:20;;;;;;;;;;;;;;;23.03;56.88;98350.84;3321488;29;19929;-70
2021/09/01 06:04:00;;;;;;;;;;;;;;;23.04;56.87;98353.25;3313979;29;19929;-70
2021/09/01 06:05:41;;;;;;;;;;;;;;;23.05;56.78;98357.56;3311390;29;19951;-70
2021/09/01 06:07:21;;;;;;;;;;;;;;;23.05;56.68;98344.00;3309178;29;19937;-71
2021/09/01 06:09:02;;;;;;;;;;;;;;;23.07;56.51;98347.19;3312110;29;19929;-69
2021/09/01 06:10:42;;;;;;;;;;;;;;;23.06;56.50;98345.59;3311275;29;20452;-72
2021/09/01 06:12:23;;;;;;;;;;;;;;;23.11;56.58;98343.88;3311117;29;19929;-70
2021/09/01 06:14:03;;;;;;;;;;;;;;;23.13;56.54;98344.34;3308583;29;19929;-70
2021/09/01 06:15:44;;;;;;;;;;;;;;;23.15;56.50;98336.69;3312078;29;20459;-70
2021/09/01 06:17:25;;;;;;;;;;;;;;;23.17;56.55;98329.03;3312196;29;19991;-71
2021/09/01 06:19:05;;;;;;;;;;;;;;;23.20;56.41;98331.09;3312193;29;20359;-71
2021/09/01 06:20:46;;;;;;;;;;;;;;;23.26;56.42;98338.84;3313279;29;20401;-69
2021/09/01 06:22:26;;;;;;;;;;;;;;;23.30;56.08;98330.84;3314235;29;20290;-71
2021/09/01 06:24:07;;;;;;;;;;;;;;;23.30;56.18;98330.84;3314068;29;19929;-72
2021/09/01 06:25:47;;;;;;;;;;;;;;;23.31;56.30;98324.28;3314197;29;19933;-71
2021/09/01 06:27:28;;;;;;;;;;;;;;;23.30;56.35;98326.22;3314000;29;19936;-70
2021/09/01 06:29:08;;;;;;;;;;;;;;;23.30;56.39;98320.78;3314026;29;20029;-71
2021/09/01 06:30:49;;;;;;;;;;;;;;;23.30;56.29;98317.25;3314626;29;20027;-71
2021/09/01 06:32:29;;;;;;;;;;;;;;;23.26;56.13;98319.00;3314414;29;19964;-71
2021/09/01 06:34:10;;;;;;;;;;;;;;;23.23;56.30;98323.16;3314170;29;19986;-72
2021/09/01 06:35:50;;;;;;;;;;;;;;;23.26;56.42;98316.28;3314293;29;19986;-71
2021/09/01 06:37:31;;;;;;;;;;;;;;;23.25;55.97;98329.06;3313950;29;19986;-72
2021/09/01 06:39:12;;;;;;;;;;;;;;;23.22;55.84;98321.53;3313997;29;20390;-73
2021/09/01 06:40:52;;;;;;;;;;;;;;;23.21;55.95;98311.78;3314196;29;20400;-70
2021/09/01 06:42:33;;;;;;;;;;;;;;;23.26;55.88;98313.56;3313683;29;20044;-71
2021/09/01 06:44:13;;;;;;;;;;;;;;;23.27;55.95;98305.09;3314180;29;20350;-73
2021/09/01 06:45:54;;;;;;;;;;;;;;;23.33;55.96;98307.66;3314155;29;20356;-73
2021/09/01 06:47:45;;;;;;;;;;;;;;;23.41;55.80;98299.53;3314049;29;19972;-72
2021/09/01 06:49:25;;;;;;;;;;;;;;;23.48;55.76;98297.19;3314488;29;20032;-73
2021/09/01 06:51:06;;;;;;;;;;;;;;;23.54;55.81;98297.84;3314507;29;19933;-72
2021/09/01 06:52:46;;;;;;;;;;;;;;;23.59;55.38;98292.25;3313749;29;19929;-70
2021/09/01 06:54:27;;;;;;;;;;;;;;;23.62;55.53;98285.38;3313925;29;19993;-73
2021/09/01 06:56:08;;;;;;;;;;;;;;;23.65;55.53;98277.41;3314216;29;19929;-73
2021/09/01 06:57:48;;;;;;;;;;;;;;;23.75;55.33;98281.81;3314394;29;19928;-73
2021/09/01 06:59:29;;;;;;;;;;;;;;;23.81;55.36;98285.97;3313257;29;19929;-72
2021/09/01 07:01:10;;;;;;;;;;;;;;;23.85;55.10;98284.22;3313483;29;20374;-71
2021/09/01 07:02:50;;;;;;;;;;;;;;;23.85;54.98;98278.78;3313878;29;19929;-70
2021/09/01 07:04:31;;;;;;;;;;;;;;;23.82;54.84;98284.03;3309739;29;20353;-71
2021/09/01 07:06:11;;;;;;;;;;;;;;;23.76;55.05;98280.69;3301470;29;19940;-69
2021/09/01 07:07:52;;;;;;;;;;;;;;;23.73;55.30;98279.38;3302226;29;20020;-70
2021/09/01 07:09:32;;;;;;;;;;;;;;;23.70;55.31;98273.75;3323235;29;20013;-78
2021/09/01 07:11:13;;;;;;;;;;;;;;;23.66;55.23;98275.50;3325733;29;19932;-85
2021/09/01 07:12:53;;;;;;;;;;;;;;;23.65;55.14;98271.19;3286527;30;19930;-82
2021/09/01 07:14:34;;;;;;;;;;;;;;;23.61;55.13;98262.84;3317535;29;19976;-83
2021/09/01 07:16:15;;;;;;;;;;;;;;;23.58;54.86;98268.13;3314844;29;19933;-83
2021/09/01 07:17:57;;;;;;;;;;;;;;;23.57;55.17;98266.50;3314596;29;19968;-83
2021/09/01 07:19:38;;;;;;;;;;;;;;;23.55;55.07;98260.59;3314849;29;20414;-81
2021/09/01 07:21:19;;;;;;;;;;;;;;;23.50;54.90;98267.75;3302390;29;20363;-82
2021/09/01 07:23:00;;;;;;;;;;;;;;;23.46;55.01;98269.50;3315904;29;19933;-82
2021/09/01 07:24:41;;;;;;;;;;;;;;;23.43;54.98;98267.41;3315102;29;20305;-82
2021/09/01 07:26:23;;;;;;;;;;;;;;;23.44;55.11;98279.06;3313279;29;19929;-83
2021/09/01 07:28:04;;;;;;;;;;;;;;;23.43;54.88;98264.69;3314145;29;20462;-82
2021/09/01 07:29:45;;;;;;;;;;;;;;;23.42;54.82;98271.25;3315884;29;19985;-83
2021/09/01 07:31:27;;;;;;;;;;;;;;;23.40;54.61;98265.31;3337210;29;19988;-82
2021/09/01 07:33:10;;;;;;;;;;;;;;;23.39;54.91;98277.31;3319827;29;19969;-82
2021/09/01 07:34:55;;;;;;;;;;;;;;;23.40;54.75;98273.47;3315925;29;20728;-82
2021/09/01 07:36:35;;;;;;;;;;;;;;;23.43;54.79;98258.44;3326304;29;19935;-83
2021/09/01 07:38:16;;;;;;;;;;;;;;;23.45;54.67;98258.94;3319096;29;19929;-81
2021/09/01 07:39:57;;;;;;;;;;;;;;;23.45;54.50;98253.50;3316082;29;19929;-82
2021/09/01 07:41:38;;;;;;;;;;;;;;;23.47;54.84;98246.63;3313981;29;19936;-82
2021/09/01 07:43:19;;;;;;;;;;;;;;;23.49;54.42;98249.84;3314434;29;19929;-82
2021/09/01 07:45:00;;;;;;;;;;;;;;;23.47;54.68;98249.34;3314528;29;19932;-81
2021/09/01 07:46:40;;;;;;;;;;;;;;;23.48;54.50;98250.94;3314834;29;19936;-78
2021/09/01 07:48:21;;;;;;;;;;;;;;;23.49;54.29;98241.69;3317822;29;19968;-77
2021/09/01 07:50:02;;;;;;;;;;;;;;;23.51;54.32;98244.88;3318433;29;19929;-82
2021/09/01 07:51:43;;;;;;;;;;;;;;;23.56;54.20;98245.84;3316949;29;19960;-78
2021/09/01 07:53:24;;;;;;;;;;;;;;;23.60;54.26;98249.56;3313974;29;19937;-78
2021/09/01 07:55:04;;;;;;;;;;;;;;;23.60;54.03;98236.75;3313653;29;19982;-80
2021/09/01 07:56:45;;;;;;;;;;;;;;;23.62;54.24;98242.69;3313486;29;19929;-82
2021/09/01 07:58:25;;;;;;;;;;;;;;;23.65;54.13;98235.81;3314311;29;19976;-80
2021/09/01 08:00:07;;;;;;;;;;;;;;;23.71;53.99;98237.25;3314064;29;19925;-83
2021/09/01 08:01:48;;;;;;;;;;;;;;;23.77;53.86;98241.47;3314542;29;20016;-82
2021/09/01 08:03:32;;;;;;;;;;;;;;;23.88;53.73;98237.34;3314119;29;19929;-81
2021/09/01 08:05:12;;;;;;;;;;;;;;;24.01;53.48;98238.31;3313889;29;20498;-82
2021/09/01 08:06:53;;;;;;;;;;;;;;;24.17;53.48;98241.34;3313875;29;19933;-81
2021/09/01 08:08:34;;;;;;;;;;;;;;;24.30;53.27;98245.84;3325373;29;19929;-80
2021/09/01 08:10:14;;;;;;;;;;;;;;;24.38;52.86;98242.31;3313145;29;19933;-81
2021/09/01 08:11:55;;;;;;;;;;;;;;;24.47;53.03;98244.25;3314100;29;19986;-80
2021/09/01 08:13:35;;;;;;;;;;;;;;;24.53;52.84;98240.25;3313781;29;20305;-81
2021/09/01 08:15:16;;;;;;;;;;;;;;;24.58;52.75;98246.34;3313323;29;20001;-81
2021/09/01 08:16:57;;;;;;;;;;;;;;;24.59;52.44;98247.94;3310915;29;19936;-83
2021/09/01 08:18:37;;;;;;;;;;;;;;;24.59;52.75;98247.94;3314280;29;20035;-81
2021/09/01 08:20:18;;;;;;;;;;;;;;;24.60;52.61;98251.44;3313293;29;19936;-82
2021/09/01 08:21:58;;;;;;;;;;;;;;;24.63;52.47;98253.56;3314011;29;19935;-80
2021/09/01 08:23:39;;;;;;;;;;;;;;;24.65;52.45;98251.28;3312544;29;19937;-81
2021/09/01 08:25:20;;;;;;;;;;;;;;;24.72;52.49;98246.16;3322887;29;19929;-82
2021/09/01 08:27:00;;;;;;;;;;;;;;;24.80;52.34;98249.97;3312953;29;19929;-82
2021/09/01 08:28:41;;;;;;;;;;;;;;;24.89;52.15;98247.25;3313387;29;20009;-79
2021/09/01 08:30:21;;;;;;;;;;;;;;;24.99;51.85;98244.97;3313679;29;20002;-81
2021/09/01 08:32:02;;;;;;;;;;;;;;;25.08;51.87;98236.75;3312658;29;19929;-79
2021/09/01 08:33:43;;;;;;;;;;;;;;;25.16;51.75;98235.97;3313567;29;19929;-82
2021/09/01 08:35:23;;;;;;;;;;;;;;;25.37;51.50;98241.47;3313831;29;19936;-82
2021/09/01 08:37:04;;;;;;;;;;;;;;;25.72;51.35;98237.78;3313332;29;19971;-82
2021/09/01 08:38:45;;;;;;;;;;;;;;;26.15;50.68;98239.44;3313941;29;19964;-82
2021/09/01 08:40:26;;;;;;;;;;;;;;;26.57;50.07;98234.00;3313919;29;20317;-81
2021/09/01 08:42:06;;;;;;;;;;;;;;;26.84;49.34;98230.63;3313473;29;20020;-79
2021/09/01 08:43:47;;;;;;;;;;;;;;;27.11;48.73;98240.16;3312709;29;19936;-80
2021/09/01 08:45:28;;;;;;;;;;;;;;;27.18;48.57;98243.19;3313930;29;19929;-79